sensor_id;sensor_type;location;lat;lon;timestamp;pressure;altitude;pressure_sealevel;temperature;humidity
80164;BME280;70071;55.130;61.268;2023-06-04T00:00:27;98328.69;;;29.28;31.94
80164;BME280;70071;55.130;61.268;2023-06-04T00:02:56;98311.97;;;29.21;32.28
80164;BME280;70071;55.130;61.268;2023-06-04T00:21:55;98356.19;;;29.23;32.64
80164;BME280;70071;55.130;61.268;2023-06-04T00:35:49;98350.22;;;29.21;33.53
80164;BME280;70071;55.130;61.268;2023-06-04T01:14:47;98354.88;;;29.29;35.51
80164;BME280;70071;55.130;61.268;2023-06-04T01:24:11;98377.47;;;29.65;35.85
80164;BME280;70071;55.130;61.268;2023-06-04T01:26:49;98382.31;;;29.59;36.29
80164;BME280;70071;55.130;61.268;2023-06-04T01:29:29;98333.31;;;29.36;36.38
80164;BME280;70071;55.130;61.268;2023-06-04T01:32:18;98342.47;;;29.40;36.73
80164;BME280;70071;55.130;61.268;2023-06-04T01:35:34;98360.28;;;29.55;36.68
80164;BME280;70071;55.130;61.268;2023-06-04T01:38:05;98362.06;;;29.51;36.82
80164;BME280;70071;55.130;61.268;2023-06-04T01:40:43;98362.72;;;29.48;37.45
80164;BME280;70071;55.130;61.268;2023-06-04T01:43:20;98393.22;;;29.68;36.55
80164;BME280;70071;55.130;61.268;2023-06-04T01:45:46;98382.81;;;29.61;36.46
80164;BME280;70071;55.130;61.268;2023-06-04T01:48:13;98362.56;;;29.45;36.61
80164;BME280;70071;55.130;61.268;2023-06-04T02:05:31;98377.94;;;29.67;36.85
80164;BME280;70071;55.130;61.268;2023-06-04T02:07:57;98357.25;;;29.48;36.92
80164;BME280;70071;55.130;61.268;2023-06-04T02:10:27;98350.16;;;29.56;36.98
80164;BME280;70071;55.130;61.268;2023-06-04T02:12:58;98357.03;;;29.62;37.47
80164;BME280;70071;55.130;61.268;2023-06-04T02:15:27;98387.09;;;29.80;37.09
80164;BME280;70071;55.130;61.268;2023-06-04T02:17:56;98383.72;;;29.83;37.49
80164;BME280;70071;55.130;61.268;2023-06-04T02:20:28;98384.19;;;29.85;37.13
80164;BME280;70071;55.130;61.268;2023-06-04T02:22:55;98393.34;;;29.89;37.24
80164;BME280;70071;55.130;61.268;2023-06-04T02:25:22;98390.63;;;29.89;37.66
80164;BME280;70071;55.130;61.268;2023-06-04T02:27:49;98380.47;;;29.89;37.35
80164;BME280;70071;55.130;61.268;2023-06-04T02:30:15;98384.97;;;29.94;37.31
80164;BME280;70071;55.130;61.268;2023-06-04T02:32:42;98365.22;;;29.88;36.91
80164;BME280;70071;55.130;61.268;2023-06-04T02:35:10;98379.78;;;30.01;37.22
80164;BME280;70071;55.130;61.268;2023-06-04T02:37:36;98378.34;;;30.04;37.29
80164;BME280;70071;55.130;61.268;2023-06-04T02:40:02;98377.50;;;30.03;37.42
80164;BME280;70071;55.130;61.268;2023-06-04T02:42:30;98371.13;;;29.99;37.08
80164;BME280;70071;55.130;61.268;2023-06-04T02:44:56;98385.03;;;30.15;37.03
80164;BME280;70071;55.130;61.268;2023-06-04T02:47:22;98371.53;;;30.10;36.92
80164;BME280;70071;55.130;61.268;2023-06-04T02:49:48;98376.50;;;30.17;37.18
80164;BME280;70071;55.130;61.268;2023-06-04T02:52:14;98391.13;;;30.21;37.13
80164;BME280;70071;55.130;61.268;2023-06-04T02:54:40;98390.81;;;30.22;36.82
80164;BME280;70071;55.130;61.268;2023-06-04T02:57:06;98388.72;;;30.19;36.91
80164;BME280;70071;55.130;61.268;2023-06-04T02:59:32;98387.28;;;30.22;36.72
80164;BME280;70071;55.130;61.268;2023-06-04T03:01:58;98394.00;;;30.24;37.31
80164;BME280;70071;55.130;61.268;2023-06-04T03:04:24;98392.41;;;30.23;37.30
80164;BME280;70071;55.130;61.268;2023-06-04T03:06:50;98398.03;;;30.27;37.24
80164;BME280;70071;55.130;61.268;2023-06-04T03:09:23;98400.75;;;30.27;37.03
80164;BME280;70071;55.130;61.268;2023-06-04T03:11:49;98391.75;;;30.26;36.67
80164;BME280;70071;55.130;61.268;2023-06-04T03:14:15;98392.41;;;30.23;36.88
80164;BME280;70071;55.130;61.268;2023-06-04T03:16:41;98403.78;;;30.34;36.99
80164;BME280;70071;55.130;61.268;2023-06-04T03:19:07;98392.19;;;30.37;36.73
80164;BME280;70071;55.130;61.268;2023-06-04T03:21:34;98388.63;;;30.37;36.37
80164;BME280;70071;55.130;61.268;2023-06-04T03:24:00;98382.22;;;30.41;36.41
80164;BME280;70071;55.130;61.268;2023-06-04T03:26:25;98388.47;;;30.42;36.26
80164;BME280;70071;55.130;61.268;2023-06-04T03:28:52;98377.66;;;30.45;36.32
80164;BME280;70071;55.130;61.268;2023-06-04T03:31:18;98375.06;;;30.49;36.24
80164;BME280;70071;55.130;61.268;2023-06-04T03:33:44;98373.78;;;30.46;36.41
80164;BME280;70071;55.130;61.268;2023-06-04T03:36:09;98363.78;;;30.51;35.89
80164;BME280;70071;55.130;61.268;2023-06-04T03:38:35;98371.13;;;30.59;36.06
80164;BME280;70071;55.130;61.268;2023-06-04T03:41:01;98379.81;;;30.61;35.58
80164;BME280;70071;55.130;61.268;2023-06-04T03:43:27;98370.47;;;30.62;35.73
80164;BME280;70071;55.130;61.268;2023-06-04T03:45:53;98360.97;;;30.59;35.82
80164;BME280;70071;55.130;61.268;2023-06-04T03:48:19;98339.63;;;30.53;35.50
80164;BME280;70071;55.130;61.268;2023-06-04T03:50:45;98369.75;;;30.74;35.34
80164;BME280;70071;55.130;61.268;2023-06-04T03:53:11;98377.41;;;30.80;35.32
80164;BME280;70071;55.130;61.268;2023-06-04T03:55:37;98368.88;;;30.82;35.59
80164;BME280;70071;55.130;61.268;2023-06-04T03:58:03;98357.25;;;30.85;35.38
80164;BME280;70071;55.130;61.268;2023-06-04T04:00:29;98367.34;;;30.93;34.82
80164;BME280;70071;55.130;61.268;2023-06-04T04:02:55;98364.47;;;30.90;34.51
80164;BME280;70071;55.130;61.268;2023-06-04T04:05:22;98367.34;;;30.93;34.67
80164;BME280;70071;55.130;61.268;2023-06-04T04:07:47;98369.56;;;31.00;34.38
80164;BME280;70071;55.130;61.268;2023-06-04T04:10:13;98363.56;;;31.07;34.12
80164;BME280;70071;55.130;61.268;2023-06-04T04:12:39;98375.69;;;31.18;33.97
80164;BME280;70071;55.130;61.268;2023-06-04T04:15:05;98368.28;;;31.18;33.50
80164;BME280;70071;55.130;61.268;2023-06-04T04:17:32;98370.16;;;31.27;33.37
80164;BME280;70071;55.130;61.268;2023-06-04T04:19:58;98366.84;;;31.33;32.93
80164;BME280;70071;55.130;61.268;2023-06-04T04:22:23;98362.75;;;31.40;32.71
80164;BME280;70071;55.130;61.268;2023-06-04T04:24:50;98346.28;;;31.40;33.05
80164;BME280;70071;55.130;61.268;2023-06-04T04:27:16;98342.69;;;31.48;32.42
80164;BME280;70071;55.130;61.268;2023-06-04T04:29:41;98341.66;;;31.52;32.53
80164;BME280;70071;55.130;61.268;2023-06-04T04:32:09;98356.78;;;31.59;32.56
80164;BME280;70071;55.130;61.268;2023-06-04T04:34:50;98350.72;;;31.65;32.46
80164;BME280;70071;55.130;61.268;2023-06-04T04:37:20;98345.50;;;31.73;32.07
80164;BME280;70071;55.130;61.268;2023-06-04T04:39:49;98351.56;;;31.78;31.95
80164;BME280;70071;55.130;61.268;2023-06-04T04:42:18;98348.69;;;31.75;32.48
80164;BME280;70071;55.130;61.268;2023-06-04T04:44:44;98342.31;;;31.83;32.15
80164;BME280;70071;55.130;61.268;2023-06-04T04:47:14;98349.38;;;31.84;32.32
80164;BME280;70071;55.130;61.268;2023-06-04T04:49:40;98343.78;;;31.93;32.21
80164;BME280;70071;55.130;61.268;2023-06-04T04:52:06;98342.53;;;32.02;31.71
80164;BME280;70071;55.130;61.268;2023-06-04T04:54:32;98335.78;;;32.00;31.78
80164;BME280;70071;55.130;61.268;2023-06-04T04:56:58;98339.91;;;32.06;31.79
80164;BME280;70071;55.130;61.268;2023-06-04T04:59:24;98333.41;;;32.11;31.76
80164;BME280;70071;55.130;61.268;2023-06-04T05:01:49;98330.09;;;32.17;31.45
80164;BME280;70071;55.130;61.268;2023-06-04T05:04:15;98335.56;;;32.17;32.09
80164;BME280;70071;55.130;61.268;2023-06-04T05:06:41;98318.66;;;32.15;31.70
80164;BME280;70071;55.130;61.268;2023-06-04T05:09:07;98331.47;;;32.23;31.55
80164;BME280;70071;55.130;61.268;2023-06-04T05:11:33;98330.78;;;32.27;31.10
80164;BME280;70071;55.130;61.268;2023-06-04T05:13:59;98315.44;;;32.26;31.70
80164;BME280;70071;55.130;61.268;2023-06-04T05:16:25;98318.28;;;32.29;30.92
80164;BME280;70071;55.130;61.268;2023-06-04T05:18:53;98308.13;;;32.30;31.18
80164;BME280;70071;55.130;61.268;2023-06-04T05:21:22;98309.84;;;32.34;30.90
80164;BME280;70071;55.130;61.268;2023-06-04T05:23:50;98298.84;;;32.34;30.85
80164;BME280;70071;55.130;61.268;2023-06-04T05:26:16;98313.59;;;32.42;30.95
80164;BME280;70071;55.130;61.268;2023-06-04T05:28:42;98284.47;;;32.25;31.30
80164;BME280;70071;55.130;61.268;2023-06-04T05:31:09;98311.28;;;32.44;31.10
80164;BME280;70071;55.130;61.268;2023-06-04T05:33:38;98309.56;;;32.52;31.04
80164;BME280;70071;55.130;61.268;2023-06-04T05:36:04;98300.53;;;32.51;30.59
80164;BME280;70071;55.130;61.268;2023-06-04T05:38:30;98317.75;;;32.64;29.77
80164;BME280;70071;55.130;61.268;2023-06-04T05:41:03;98304.53;;;32.66;29.82
80164;BME280;70071;55.130;61.268;2023-06-04T05:43:29;98309.31;;;32.69;30.24
80164;BME280;70071;55.130;61.268;2023-06-04T05:45:55;98299.34;;;32.65;29.79
80164;BME280;70071;55.130;61.268;2023-06-04T05:48:21;98312.72;;;32.79;29.48
80164;BME280;70071;55.130;61.268;2023-06-04T05:50:47;98302.88;;;32.78;29.30
80164;BME280;70071;55.130;61.268;2023-06-04T05:53:13;98295.28;;;32.87;29.85
80164;BME280;70071;55.130;61.268;2023-06-04T05:55:39;98309.44;;;33.01;29.35
80164;BME280;70071;55.130;61.268;2023-06-04T05:58:08;98279.59;;;32.87;28.83
80164;BME280;70071;55.130;61.268;2023-06-04T06:00:34;98309.97;;;33.07;29.03
80164;BME280;70071;55.130;61.268;2023-06-04T06:03:00;98321.16;;;33.14;28.43
80164;BME280;70071;55.130;61.268;2023-06-04T06:05:27;98303.06;;;33.13;28.61
80164;BME280;70071;55.130;61.268;2023-06-04T06:07:53;98291.53;;;33.07;28.29
80164;BME280;70071;55.130;61.268;2023-06-04T06:10:19;98299.13;;;33.26;28.46
80164;BME280;70071;55.130;61.268;2023-06-04T06:12:46;98298.34;;;33.26;27.90
80164;BME280;70071;55.130;61.268;2023-06-04T06:15:15;98307.28;;;33.39;27.83
80164;BME280;70071;55.130;61.268;2023-06-04T06:17:41;98304.72;;;33.30;28.25
80164;BME280;70071;55.130;61.268;2023-06-04T06:20:07;98302.50;;;33.36;28.39
80164;BME280;70071;55.130;61.268;2023-06-04T06:22:34;98292.75;;;33.38;28.24
80164;BME280;70071;55.130;61.268;2023-06-04T06:25:02;98283.72;;;33.38;28.65
80164;BME280;70071;55.130;61.268;2023-06-04T06:27:32;98275.91;;;33.40;28.29
80164;BME280;70071;55.130;61.268;2023-06-04T06:29:58;98279.09;;;33.42;28.12
80164;BME280;70071;55.130;61.268;2023-06-04T06:32:24;98291.53;;;33.52;28.30
80164;BME280;70071;55.130;61.268;2023-06-04T06:34:50;98280.78;;;33.46;28.75
80164;BME280;70071;55.130;61.268;2023-06-04T06:37:16;98284.41;;;33.51;29.30
80164;BME280;70071;55.130;61.268;2023-06-04T06:39:42;98306.34;;;33.63;28.95
80164;BME280;70071;55.130;61.268;2023-06-04T06:42:08;98296.59;;;33.65;28.68
80164;BME280;70071;55.130;61.268;2023-06-04T06:44:34;98296.31;;;33.71;29.08
80164;BME280;70071;55.130;61.268;2023-06-04T06:47:00;98285.22;;;33.67;28.78
80164;BME280;70071;55.130;61.268;2023-06-04T06:49:26;98259.91;;;33.61;28.79
80164;BME280;70071;55.130;61.268;2023-06-04T06:51:54;98262.50;;;33.70;28.30
80164;BME280;70071;55.130;61.268;2023-06-04T06:54:20;98287.19;;;33.82;29.11
80164;BME280;70071;55.130;61.268;2023-06-04T06:56:48;98288.00;;;33.83;28.39
80164;BME280;70071;55.130;61.268;2023-06-04T06:59:16;98285.59;;;33.81;28.08
80164;BME280;70071;55.130;61.268;2023-06-04T07:01:41;98284.25;;;33.91;28.49
80164;BME280;70071;55.130;61.268;2023-06-04T07:04:07;98255.69;;;33.80;28.42
80164;BME280;70071;55.130;61.268;2023-06-04T07:06:34;98253.63;;;33.93;29.08
80164;BME280;70071;55.130;61.268;2023-06-04T07:09:02;98233.56;;;33.92;28.58
80164;BME280;70071;55.130;61.268;2023-06-04T07:11:28;98233.34;;;34.01;29.09
80164;BME280;70071;55.130;61.268;2023-06-04T07:13:54;98230.41;;;34.10;28.89
80164;BME280;70071;55.130;61.268;2023-06-04T07:16:20;98247.16;;;34.21;28.56
80164;BME280;70071;55.130;61.268;2023-06-04T07:18:48;98231.34;;;34.17;27.74
80164;BME280;70071;55.130;61.268;2023-06-04T07:21:17;98237.03;;;34.25;27.63
80164;BME280;70071;55.130;61.268;2023-06-04T07:23:45;98237.63;;;34.34;26.64
80164;BME280;70071;55.130;61.268;2023-06-04T07:26:15;98245.16;;;34.37;26.00
80164;BME280;70071;55.130;61.268;2023-06-04T07:28:41;98227.75;;;34.33;26.36
80164;BME280;70071;55.130;61.268;2023-06-04T07:31:07;98238.16;;;34.40;25.74
80164;BME280;70071;55.130;61.268;2023-06-04T07:33:33;98219.59;;;34.37;26.31
80164;BME280;70071;55.130;61.268;2023-06-04T07:35:59;98234.47;;;34.51;25.32
80164;BME280;70071;55.130;61.268;2023-06-04T07:38:25;98208.72;;;34.44;25.59
80164;BME280;70071;55.130;61.268;2023-06-04T07:40:52;98201.53;;;34.39;22.77
80164;BME280;70071;55.130;61.268;2023-06-04T07:43:18;98224.75;;;34.58;22.37
80164;BME280;70071;55.130;61.268;2023-06-04T07:45:44;98220.88;;;34.62;22.40
80164;BME280;70071;55.130;61.268;2023-06-04T07:48:10;98225.66;;;34.65;23.38
80164;BME280;70071;55.130;61.268;2023-06-04T07:50:38;98212.63;;;34.62;21.40
80164;BME280;70071;55.130;61.268;2023-06-04T07:53:05;98213.97;;;34.72;21.16
80164;BME280;70071;55.130;61.268;2023-06-04T07:55:32;98202.44;;;34.66;21.62
80164;BME280;70071;55.130;61.268;2023-06-04T07:57:59;98212.91;;;34.77;22.12
80164;BME280;70071;55.130;61.268;2023-06-04T08:00:25;98219.72;;;34.83;22.72
80164;BME280;70071;55.130;61.268;2023-06-04T08:02:50;98205.94;;;34.83;23.11
80164;BME280;70071;55.130;61.268;2023-06-04T08:05:18;98213.97;;;34.92;22.52
80164;BME280;70071;55.130;61.268;2023-06-04T08:07:44;98190.13;;;34.80;22.32
80164;BME280;70071;55.130;61.268;2023-06-04T08:10:09;98198.22;;;34.92;22.14
80164;BME280;70071;55.130;61.268;2023-06-04T08:12:36;98178.88;;;34.88;22.77
80164;BME280;70071;55.130;61.268;2023-06-04T08:15:03;98172.13;;;34.86;22.69
80164;BME280;70071;55.130;61.268;2023-06-04T08:17:49;98197.81;;;35.13;22.27
80164;BME280;70071;55.130;61.268;2023-06-04T08:20:18;98186.00;;;35.13;21.98
80164;BME280;70071;55.130;61.268;2023-06-04T08:22:57;98187.06;;;35.28;21.35
80164;BME280;70071;55.130;61.268;2023-06-04T08:25:26;98184.19;;;35.24;20.72
80164;BME280;70071;55.130;61.268;2023-06-04T08:28:15;98186.72;;;35.33;20.36
80164;BME280;70071;55.130;61.268;2023-06-04T08:30:59;98188.75;;;35.36;19.40
80164;BME280;70071;55.130;61.268;2023-06-04T08:33:37;98199.91;;;35.43;19.22
80164;BME280;70071;55.130;61.268;2023-06-04T08:36:09;98176.06;;;35.31;18.06
80164;BME280;70071;55.130;61.268;2023-06-04T08:38:34;98199.28;;;35.53;18.19
80164;BME280;70071;55.130;61.268;2023-06-04T08:41:15;98185.78;;;35.48;17.56
80164;BME280;70071;55.130;61.268;2023-06-04T08:43:42;98185.53;;;35.57;17.79
80164;BME280;70071;55.130;61.268;2023-06-04T08:46:15;98192.06;;;35.72;18.40
80164;BME280;70071;55.130;61.268;2023-06-04T08:48:46;98195.75;;;35.80;17.48
80164;BME280;70071;55.130;61.268;2023-06-04T08:51:12;98168.00;;;35.72;17.44
80164;BME280;70071;55.130;61.268;2023-06-04T08:53:39;98194.00;;;35.95;18.15
80164;BME280;70071;55.130;61.268;2023-06-04T08:56:05;98181.34;;;35.93;17.69
80164;BME280;70071;55.130;61.268;2023-06-04T08:58:32;98186.97;;;36.01;18.34
80164;BME280;70071;55.130;61.268;2023-06-04T09:01:01;98174.69;;;35.98;18.12
80164;BME280;70071;55.130;61.268;2023-06-04T09:03:29;98175.94;;;36.01;18.17
80164;BME280;70071;55.130;61.268;2023-06-04T09:06:01;98179.22;;;36.14;17.77
80164;BME280;70071;55.130;61.268;2023-06-04T09:08:31;98161.75;;;36.02;17.65
80164;BME280;70071;55.130;61.268;2023-06-04T09:11:01;98165.81;;;36.12;17.94
80164;BME280;70071;55.130;61.268;2023-06-04T09:13:31;98151.31;;;36.19;18.55
80164;BME280;70071;55.130;61.268;2023-06-04T09:16:02;98137.16;;;36.24;19.18
80164;BME280;70071;55.130;61.268;2023-06-04T09:18:29;98128.47;;;36.25;19.25
80164;BME280;70071;55.130;61.268;2023-06-04T09:21:06;98129.38;;;36.33;19.42
80164;BME280;70071;55.130;61.268;2023-06-04T09:23:48;98126.81;;;36.51;19.81
80164;BME280;70071;55.130;61.268;2023-06-04T09:26:14;98124.50;;;36.57;19.40
80164;BME280;70071;55.130;61.268;2023-06-04T09:28:45;98102.03;;;36.62;19.04
80164;BME280;70071;55.130;61.268;2023-06-04T09:31:15;98097.38;;;36.70;18.38
80164;BME280;70071;55.130;61.268;2023-06-04T09:33:49;98084.44;;;36.77;17.96
80164;BME280;70071;55.130;61.268;2023-06-04T09:36:15;98094.47;;;36.93;17.67
80164;BME280;70071;55.130;61.268;2023-06-04T09:38:42;98094.16;;;37.09;17.30
80164;BME280;70071;55.130;61.268;2023-06-04T09:41:15;98100.94;;;37.19;16.99
80164;BME280;70071;55.130;61.268;2023-06-04T09:43:42;98083.19;;;37.20;17.14
80164;BME280;70071;55.130;61.268;2023-06-04T09:48:36;98078.22;;;37.47;17.18
80164;BME280;70071;55.130;61.268;2023-06-04T09:51:13;98086.97;;;37.56;18.02
80164;BME280;70071;55.130;61.268;2023-06-04T09:53:41;98073.97;;;37.60;17.62
80164;BME280;70071;55.130;61.268;2023-06-04T09:56:07;98073.19;;;37.67;17.41
80164;BME280;70071;55.130;61.268;2023-06-04T09:58:34;98069.72;;;37.74;17.83
80164;BME280;70071;55.130;61.268;2023-06-04T10:01:04;98032.81;;;37.55;18.08
80164;BME280;70071;55.130;61.268;2023-06-04T10:03:34;98057.03;;;37.76;17.51
80164;BME280;70071;55.130;61.268;2023-06-04T10:06:05;98055.47;;;37.75;17.86
80164;BME280;70071;55.130;61.268;2023-06-04T10:08:32;98053.09;;;37.74;17.97
80164;BME280;70071;55.130;61.268;2023-06-04T10:11:01;98054.28;;;37.73;18.21
80164;BME280;70071;55.130;61.268;2023-06-04T10:13:29;98055.88;;;37.74;18.28
80164;BME280;70071;55.130;61.268;2023-06-04T10:16:00;98058.56;;;37.70;17.76
80164;BME280;70071;55.130;61.268;2023-06-04T10:18:27;98059.78;;;37.69;17.83
80164;BME280;70071;55.130;61.268;2023-06-04T10:20:57;98061.72;;;37.65;17.94
80164;BME280;70071;55.130;61.268;2023-06-04T10:23:24;98060.47;;;37.51;18.96
80164;BME280;70071;55.130;61.268;2023-06-04T10:25:51;98085.72;;;37.39;19.71
80164;BME280;70071;55.130;61.268;2023-06-04T10:28:22;98105.47;;;37.38;18.38
80164;BME280;70071;55.130;61.268;2023-06-04T10:30:48;98123.97;;;37.26;19.10
80164;BME280;70071;55.130;61.268;2023-06-04T10:33:19;98074.88;;;37.20;18.50
80164;BME280;70071;55.130;61.268;2023-06-04T10:35:54;98098.09;;;37.04;18.24
80164;BME280;70071;55.130;61.268;2023-06-04T10:38:21;98094.00;;;36.87;18.10
80164;BME280;70071;55.130;61.268;2023-06-04T10:40:48;98086.81;;;36.75;17.26
80164;BME280;70071;55.130;61.268;2023-06-04T10:43:15;98100.25;;;36.77;17.11
80164;BME280;70071;55.130;61.268;2023-06-04T10:45:44;98092.19;;;36.61;17.59
80164;BME280;70071;55.130;61.268;2023-06-04T10:48:12;98088.44;;;36.42;18.14
80164;BME280;70071;55.130;61.268;2023-06-04T10:50:52;98127.22;;;36.53;18.23
80164;BME280;70071;55.130;61.268;2023-06-04T10:53:19;98143.16;;;36.30;18.86
80164;BME280;70071;55.130;61.268;2023-06-04T10:55:50;98163.38;;;36.07;19.28
80164;BME280;70071;55.130;61.268;2023-06-04T10:58:16;98168.41;;;35.98;20.54
80164;BME280;70071;55.130;61.268;2023-06-04T11:00:45;98156.72;;;35.81;21.67
80164;BME280;70071;55.130;61.268;2023-06-04T11:03:15;98169.31;;;35.79;22.30
80164;BME280;70071;55.130;61.268;2023-06-04T11:05:43;98174.75;;;35.75;23.25
80164;BME280;70071;55.130;61.268;2023-06-04T11:08:10;98154.97;;;35.69;24.29
80164;BME280;70071;55.130;61.268;2023-06-04T11:10:39;98103.16;;;35.59;25.24
80164;BME280;70071;55.130;61.268;2023-06-04T11:13:06;98062.38;;;35.45;26.11
80164;BME280;70071;55.130;61.268;2023-06-04T11:15:43;98073.00;;;35.43;27.23
80164;BME280;70071;55.130;61.268;2023-06-04T11:18:20;98078.03;;;35.37;27.47
80164;BME280;70071;55.130;61.268;2023-06-04T11:20:48;98062.84;;;35.24;27.01
80164;BME280;70071;55.130;61.268;2023-06-04T11:23:16;98073.38;;;35.42;26.85
80164;BME280;70071;55.130;61.268;2023-06-04T11:25:43;98071.47;;;35.46;26.32
80164;BME280;70071;55.130;61.268;2023-06-04T11:28:19;98067.59;;;35.50;27.14
80164;BME280;70071;55.130;61.268;2023-06-04T11:30:57;98088.25;;;35.64;26.69
80164;BME280;70071;55.130;61.268;2023-06-04T11:33:23;98084.16;;;35.50;27.62
80164;BME280;70071;55.130;61.268;2023-06-04T11:35:49;98074.63;;;35.44;26.97
80164;BME280;70071;55.130;61.268;2023-06-04T11:38:15;98063.88;;;35.39;26.94
80164;BME280;70071;55.130;61.268;2023-06-04T11:40:41;98072.63;;;35.45;27.13
80164;BME280;70071;55.130;61.268;2023-06-04T11:43:10;98081.19;;;35.36;27.00
80164;BME280;70071;55.130;61.268;2023-06-04T11:45:37;98089.81;;;35.34;26.21
80164;BME280;70071;55.130;61.268;2023-06-04T11:48:06;98062.47;;;35.26;26.63
80164;BME280;70071;55.130;61.268;2023-06-04T11:50:32;98059.19;;;35.16;25.89
80164;BME280;70071;55.130;61.268;2023-06-04T11:52:58;98075.28;;;35.11;26.58
80164;BME280;70071;55.130;61.268;2023-06-04T11:55:28;98073.94;;;35.01;25.77
80164;BME280;70071;55.130;61.268;2023-06-04T11:57:54;98080.44;;;34.89;25.89
80164;BME280;70071;55.130;61.268;2023-06-04T12:00:20;98081.34;;;34.74;25.34
80164;BME280;70071;55.130;61.268;2023-06-04T12:02:50;98071.47;;;34.49;25.07
80164;BME280;70071;55.130;61.268;2023-06-04T12:05:18;98083.91;;;34.40;25.93
80164;BME280;70071;55.130;61.268;2023-06-04T12:07:45;98094.47;;;34.38;26.27
80164;BME280;70071;55.130;61.268;2023-06-04T12:10:12;98116.22;;;34.04;28.68
80164;BME280;70071;55.130;61.268;2023-06-04T12:12:38;98118.25;;;33.87;30.02
80164;BME280;70071;55.130;61.268;2023-06-04T12:15:07;98118.38;;;33.75;30.18
80164;BME280;70071;55.130;61.268;2023-06-04T12:17:34;98112.09;;;33.74;29.22
80164;BME280;70071;55.130;61.268;2023-06-04T12:20:00;98111.44;;;33.81;29.25
80164;BME280;70071;55.130;61.268;2023-06-04T12:22:30;98118.81;;;33.77;28.86
80164;BME280;70071;55.130;61.268;2023-06-04T12:24:57;98120.03;;;33.79;29.82
80164;BME280;70071;55.130;61.268;2023-06-04T12:27:25;98106.13;;;33.72;29.06
80164;BME280;70071;55.130;61.268;2023-06-04T12:30:10;98066.25;;;33.82;29.87
80164;BME280;70071;55.130;61.268;2023-06-04T12:32:36;98058.84;;;33.67;29.48
80164;BME280;70071;55.130;61.268;2023-06-04T12:35:03;98054.91;;;33.68;29.71
80164;BME280;70071;55.130;61.268;2023-06-04T12:37:30;98050.94;;;33.65;29.56
80164;BME280;70071;55.130;61.268;2023-06-04T12:39:56;98051.44;;;33.71;29.47
80164;BME280;70071;55.130;61.268;2023-06-04T12:42:22;98043.19;;;33.71;29.25
80164;BME280;70071;55.130;61.268;2023-06-04T12:44:49;98038.69;;;33.78;28.70
80164;BME280;70071;55.130;61.268;2023-06-04T12:47:15;98030.91;;;33.84;28.27
80164;BME280;70071;55.130;61.268;2023-06-04T12:49:43;98021.50;;;33.85;28.62
80164;BME280;70071;55.130;61.268;2023-06-04T12:52:10;98016.41;;;33.87;28.65
80164;BME280;70071;55.130;61.268;2023-06-04T12:54:36;98024.75;;;33.91;29.21
80164;BME280;70071;55.130;61.268;2023-06-04T12:57:02;98030.19;;;33.87;28.73
80164;BME280;70071;55.130;61.268;2023-06-04T12:59:28;98007.00;;;33.69;28.20
80164;BME280;70071;55.130;61.268;2023-06-04T13:01:55;98012.66;;;33.76;28.46
80164;BME280;70071;55.130;61.268;2023-06-04T13:04:21;98006.81;;;33.77;28.50
80164;BME280;70071;55.130;61.268;2023-06-04T14:41:20;97998.16;;;35.18;26.64
80164;BME280;70071;55.130;61.268;2023-06-04T14:44:50;97959.16;;;34.89;26.52
80164;BME280;70071;55.130;61.268;2023-06-04T14:47:45;98002.59;;;34.96;27.35
80164;BME280;70071;55.130;61.268;2023-06-04T14:50:50;97998.84;;;34.84;27.49
80164;BME280;70071;55.130;61.268;2023-06-04T15:06:04;97978.50;;;34.20;29.31
80164;BME280;70071;55.130;61.268;2023-06-04T15:09:20;97953.22;;;33.91;29.04
80164;BME280;70071;55.130;61.268;2023-06-04T15:11:48;97995.03;;;34.00;29.21
80164;BME280;70071;55.130;61.268;2023-06-04T15:14:17;97971.75;;;33.94;28.66
80164;BME280;70071;55.130;61.268;2023-06-04T15:17:03;97992.53;;;34.14;28.90
80164;BME280;70071;55.130;61.268;2023-06-04T15:19:30;97953.47;;;33.86;28.94
80164;BME280;70071;55.130;61.268;2023-06-04T15:22:19;98004.28;;;34.31;28.88
80164;BME280;70071;55.130;61.268;2023-06-04T15:24:55;97989.78;;;34.14;28.75
80164;BME280;70071;55.130;61.268;2023-06-04T15:27:56;97956.69;;;34.11;28.87
80164;BME280;70071;55.130;61.268;2023-06-04T15:30:22;98000.41;;;34.35;28.45
80164;BME280;70071;55.130;61.268;2023-06-04T15:32:48;98018.66;;;34.44;29.20
80164;BME280;70071;55.130;61.268;2023-06-04T15:35:14;98022.06;;;34.60;28.89
80164;BME280;70071;55.130;61.268;2023-06-04T15:37:40;98024.41;;;34.58;28.68
80164;BME280;70071;55.130;61.268;2023-06-04T15:40:06;98030.34;;;34.60;28.50
80164;BME280;70071;55.130;61.268;2023-06-04T15:42:33;98018.22;;;34.42;28.78
80164;BME280;70071;55.130;61.268;2023-06-04T15:44:59;98041.50;;;34.44;29.07
80164;BME280;70071;55.130;61.268;2023-06-04T15:47:26;98039.47;;;34.41;28.39
80164;BME280;70071;55.130;61.268;2023-06-04T15:49:51;98018.56;;;34.17;28.84
80164;BME280;70071;55.130;61.268;2023-06-04T15:52:17;98035.44;;;34.15;28.88
80164;BME280;70071;55.130;61.268;2023-06-04T15:54:45;98037.06;;;33.97;28.82
80164;BME280;70071;55.130;61.268;2023-06-04T15:57:11;98028.28;;;33.91;28.88
80164;BME280;70071;55.130;61.268;2023-06-04T15:59:36;98036.13;;;33.89;28.56
80164;BME280;70071;55.130;61.268;2023-06-04T16:02:05;98029.31;;;33.83;28.47
80164;BME280;70071;55.130;61.268;2023-06-04T16:04:31;98030.38;;;33.59;29.08
80164;BME280;70071;55.130;61.268;2023-06-04T16:06:57;98048.41;;;33.56;29.16
80164;BME280;70071;55.130;61.268;2023-06-04T16:09:23;98050.56;;;33.47;28.97
80164;BME280;70071;55.130;61.268;2023-06-04T16:11:49;98042.09;;;33.36;29.13
80164;BME280;70071;55.130;61.268;2023-06-04T16:14:18;98040.25;;;33.24;28.59